Time;durP1;ratioP1;P1;durP2;ratioP2;P2;SDS_P1;SDS_P2;PMS_P1;PMS_P2;Temp;Humidity;BMP_temperature;BMP_pressure;BME280_temperature;BME280_humidity;BME280_pressure;Samples;Min_cycle;Max_cycle;Signal;HPM_P1;HPM_P2
2023/12/25 00:09:21;;;;;;;2.8;1.5;;;;;;;8.55;89.94;;;;;
2023/12/25 00:20:21;;;;;;;2.8;1.5;;;;;;;8.7;89.43;;;;;
2023/12/25 00:30:21;;;;;;;2;1.4;;;;;;;8.83;88.59;;;;;
2023/12/25 00:41:23;;;;;;;2;1.4;;;;;;;8.99;88.03;;;;;
2023/12/25 00:51:21;;;;;;;2;1.4;;;;;;;9.14;87.29;;;;;
2023/12/25 01:02:21;;;;;;;3.7;1.7;;;;;;;9.39;86;;;;;
2023/12/25 01:13:21;;;;;;;3.7;1.7;;;;;;;9.65;84.45;;;;;
2023/12/25 01:24:21;;;;;;;3.7;1.7;;;;;;;9.96;83.26;;;;;
2023/12/25 01:34:21;;;;;;;4.2;1.4;;;;;;;10.11;82.33;;;;;
2023/12/25 01:45:21;;;;;;;4.2;1.4;;;;;;;10.4;80.68;;;;;
2023/12/25 01:55:21;;;;;;;4.2;1.4;;;;;;;10.73;79.18;;;;;
2023/12/25 02:06:21;;;;;;;1.5;1;;;;;;;10.9;77.87;;;;;
2023/12/25 02:17:21;;;;;;;1.5;1;;;;;;;11.03;77.13;;;;;
2023/12/25 02:27:21;;;;;;;1.5;1;;;;;;;11.11;76.72;;;;;
2023/12/25 02:38:21;;;;;;;1.4;0.8;;;;;;;11.23;76.15;;;;;
2023/12/25 02:49:21;;;;;;;1.4;0.8;;;;;;;11.42;74.47;;;;;
2023/12/25 02:59:21;;;;;;;1.3;0.6;;;;;;;11.45;74.22;;;;;
2023/12/25 03:10:21;;;;;;;1.3;0.6;;;;;;;11.57;73.64;;;;;
2023/12/25 03:21:21;;;;;;;1.3;0.6;;;;;;;11.61;72.79;;;;;
2023/12/25 03:31:21;;;;;;;1.2;0.6;;;;;;;11.63;72.61;;;;;
2023/12/25 03:41:21;;;;;;;1.2;0.6;;;;;;;11.51;73.02;;;;;
2023/12/25 03:52:21;;;;;;;1.2;0.6;;;;;;;11.6;72.74;;;;;
2023/12/25 04:02:21;;;;;;;1.6;0.8;;;;;;;11.52;72.93;;;;;
2023/12/25 04:13:21;;;;;;;1.6;0.8;;;;;;;11.64;71.66;;;;;
2023/12/25 04:23:21;;;;;;;1.6;0.8;;;;;;;11.69;72.3;;;;;
2023/12/25 04:33:21;;;;;;;1.5;0.6;;;;;;;11.78;71.05;;;;;
2023/12/25 04:44:22;;;;;;;1.5;0.6;;;;;;;11.81;72.38;;;;;
2023/12/25 04:54:21;;;;;;;1.5;0.6;;;;;;;11.76;71.59;;;;;
2023/12/25 05:04:21;;;;;;;1.1;0.6;;;;;;;11.76;70.92;;;;;
2023/12/25 05:14:21;;;;;;;1.1;0.6;;;;;;;11.76;70.77;;;;;
2023/12/25 05:25:21;;;;;;;1.1;0.6;;;;;;;11.72;71.49;;;;;
2023/12/25 05:35:21;;;;;;;1;0.5;;;;;;;11.67;72.69;;;;;
2023/12/25 05:45:23;;;;;;;1;0.5;;;;;;;11.57;73.07;;;;;
2023/12/25 05:55:21;;;;;;;1;0.5;;;;;;;11.33;74.88;;;;;
2023/12/25 06:06:21;;;;;;;0.9;0.5;;;;;;;11.19;73.96;;;;;
2023/12/25 06:17:21;;;;;;;0.9;0.5;;;;;;;11.23;73.89;;;;;
2023/12/25 06:28:21;;;;;;;0.9;0.5;;;;;;;11.39;71.55;;;;;
2023/12/25 06:38:21;;;;;;;0.9;0.5;;;;;;;11.54;70.21;;;;;
2023/12/25 06:49:21;;;;;;;0.9;0.5;;;;;;;11.66;68.89;;;;;
2023/12/25 06:59:21;;;;;;;0.9;0.5;;;;;;;11.74;68.29;;;;;
2023/12/25 07:09:21;;;;;;;0.9;0.5;;;;;;;11.81;68.55;;;;;
2023/12/25 07:20:21;;;;;;;0.9;0.5;;;;;;;11.78;69.1;;;;;
2023/12/25 07:30:21;;;;;;;1;0.5;;;;;;;11.82;69.47;;;;;
2023/12/25 07:40:21;;;;;;;1;0.5;;;;;;;11.82;68.92;;;;;
2023/12/25 07:50:21;;;;;;;1;0.5;;;;;;;12.05;67.63;;;;;
2023/12/25 08:01:22;;;;;;;2;0.7;;;;;;;11.98;68.14;;;;;
2023/12/25 08:12:21;;;;;;;2;0.7;;;;;;;12.14;67.14;;;;;
2023/12/25 08:23:21;;;;;;;2;0.7;;;;;;;12.17;66.16;;;;;
2023/12/25 08:34:23;;;;;;;3.1;1.1;;;;;;;12.09;67.56;;;;;
2023/12/25 08:44:21;;;;;;;3.1;1.1;;;;;;;12.19;67.54;;;;;
2023/12/25 08:54:21;;;;;;;3.1;1.1;;;;;;;12.27;67.1;;;;;
2023/12/25 09:05:21;;;;;;;1.6;0.9;;;;;;;12.16;67.19;;;;;
2023/12/25 09:16:21;;;;;;;1.6;0.9;;;;;;;12.15;68.01;;;;;
2023/12/25 09:26:21;;;;;;;1.6;0.9;;;;;;;12.17;68.15;;;;;
2023/12/25 09:37:21;;;;;;;2;1;;;;;;;12.22;68.06;;;;;
2023/12/25 09:47:21;;;;;;;2;1;;;;;;;12.34;68.15;;;;;
2023/12/25 09:57:21;;;;;;;2;1;;;;;;;12.37;69.14;;;;;
2023/12/25 10:08:21;;;;;;;3.5;1.6;;;;;;;12.49;67.97;;;;;
2023/12/25 10:19:21;;;;;;;3.5;1.6;;;;;;;12.49;67.91;;;;;
2023/12/25 10:30:21;;;;;;;1.8;0.9;;;;;;;12.57;67.63;;;;;
2023/12/25 10:41:21;;;;;;;1.8;0.9;;;;;;;12.55;67.26;;;;;
2023/12/25 10:51:21;;;;;;;1.8;0.9;;;;;;;12.45;68.79;;;;;
2023/12/25 11:01:21;;;;;;;2.1;1.1;;;;;;;12.45;69.02;;;;;
2023/12/25 11:12:21;;;;;;;2.1;1.1;;;;;;;12.6;67.83;;;;;
2023/12/25 11:22:21;;;;;;;2.1;1.1;;;;;;;12.48;68.11;;;;;
2023/12/25 11:32:22;;;;;;;1.7;0.8;;;;;;;12.41;68.36;;;;;
2023/12/25 11:43:21;;;;;;;1.7;0.8;;;;;;;12.4;68.46;;;;;
2023/12/25 11:53:21;;;;;;;1.7;0.8;;;;;;;12.34;68.19;;;;;
2023/12/25 12:03:21;;;;;;;1.8;1;;;;;;;12.37;67.94;;;;;
2023/12/25 12:14:21;;;;;;;1.8;1;;;;;;;12.37;67.29;;;;;
2023/12/25 12:25:21;;;;;;;1.8;1;;;;;;;12.46;66.72;;;;;
2023/12/25 12:35:21;;;;;;;2.4;0.9;;;;;;;12.6;67.04;;;;;
2023/12/25 12:45:21;;;;;;;2.4;0.9;;;;;;;12.53;66.97;;;;;
2023/12/25 12:56:21;;;;;;;2.4;0.9;;;;;;;12.52;67.22;;;;;
2023/12/25 13:07:21;;;;;;;2.5;1.3;;;;;;;12.53;67.31;;;;;
2023/12/25 13:17:21;;;;;;;2.5;1.3;;;;;;;12.45;67.4;;;;;
2023/12/25 13:28:21;;;;;;;2.5;1.3;;;;;;;12.45;65.96;;;;;
2023/12/25 13:38:21;;;;;;;2.7;1;;;;;;;12.42;65.73;;;;;
2023/12/25 13:48:21;;;;;;;2.7;1;;;;;;;12.19;67.68;;;;;
2023/12/25 13:58:21;;;;;;;2.7;1;;;;;;;12;68.76;;;;;
2023/12/25 14:09:21;;;;;;;4.3;1.7;;;;;;;11.89;68.83;;;;;
2023/12/25 14:19:21;;;;;;;4.3;1.7;;;;;;;11.92;68.02;;;;;
2023/12/25 14:30:21;;;;;;;2.5;1.1;;;;;;;12.04;67.1;;;;;
2023/12/25 14:40:21;;;;;;;2.5;1.1;;;;;;;12;67.62;;;;;
2023/12/25 14:51:22;;;;;;;2.5;1.1;;;;;;;11.79;70.95;;;;;
2023/12/25 15:02:21;;;;;;;3.8;1.9;;;;;;;11.52;72;;;;;
2023/12/25 15:12:21;;;;;;;3.8;1.9;;;;;;;11.45;72.12;;;;;
2023/12/25 15:22:21;;;;;;;3.8;1.9;;;;;;;11.33;73.63;;;;;
2023/12/25 15:33:21;;;;;;;2.4;1.5;;;;;;;11.3;72.88;;;;;
2023/12/25 15:43:21;;;;;;;2.4;1.5;;;;;;;11.43;71.88;;;;;
2023/12/25 15:53:21;;;;;;;2.4;1.5;;;;;;;11.42;72.94;;;;;
2023/12/25 16:03:21;;;;;;;2.9;1.6;;;;;;;11.5;71.89;;;;;
2023/12/25 16:13:22;;;;;;;2.9;1.6;;;;;;;11.51;71.76;;;;;
2023/12/25 16:24:21;;;;;;;2.9;1.6;;;;;;;11.53;72.06;;;;;
2023/12/25 16:34:21;;;;;;;2.9;1.8;;;;;;;11.45;74.21;;;;;
2023/12/25 16:45:21;;;;;;;2.9;1.8;;;;;;;11.14;76.39;;;;;
2023/12/25 16:56:22;;;;;;;2.9;1.8;;;;;;;10.6;81.71;;;;;
2023/12/25 17:06:21;;;;;;;4.5;2.2;;;;;;;10.19;84.38;;;;;
2023/12/25 17:17:21;;;;;;;4.5;2.2;;;;;;;9.91;85.91;;;;;
2023/12/25 17:28:21;;;;;;;4.5;2.2;;;;;;;9.86;86.39;;;;;
2023/12/25 17:38:21;;;;;;;10;4.6;;;;;;;9.77;87.25;;;;;
2023/12/25 17:49:21;;;;;;;10;4.6;;;;;;;9.72;87.71;;;;;
2023/12/25 18:00:21;;;;;;;6.4;3.2;;;;;;;9.59;88.5;;;;;
2023/12/25 18:11:21;;;;;;;6.4;3.2;;;;;;;9.51;89.02;;;;;
2023/12/25 18:21:21;;;;;;;6.4;3.2;;;;;;;9.53;89.39;;;;;
2023/12/25 18:32:22;;;;;;;5.4;2.5;;;;;;;9.44;89.87;;;;;
2023/12/25 18:43:21;;;;;;;5.4;2.5;;;;;;;9.44;89.93;;;;;
2023/12/25 18:54:22;;;;;;;5.4;2.5;;;;;;;9.37;90.2;;;;;
2023/12/25 19:04:21;;;;;;;6.2;3.1;;;;;;;9.35;89.99;;;;;
2023/12/25 19:15:21;;;;;;;6.2;3.1;;;;;;;9.33;89.73;;;;;
2023/12/25 19:25:21;;;;;;;6.2;3.1;;;;;;;9.39;89.34;;;;;
2023/12/25 19:36:21;;;;;;;6.3;3.1;;;;;;;9.47;88.62;;;;;
2023/12/25 19:47:21;;;;;;;6.3;3.1;;;;;;;9.39;89.14;;;;;
2023/12/25 19:58:21;;;;;;;6.3;3.1;;;;;;;9.3;86.39;;;;;
2023/12/25 20:09:21;;;;;;;4.1;2.2;;;;;;;9.1;87.4;;;;;
2023/12/25 20:20:21;;;;;;;4.1;2.2;;;;;;;9.04;86.34;;;;;
2023/12/25 20:30:21;;;;;;;2.2;1.1;;;;;;;9.01;86.14;;;;;
2023/12/25 20:40:21;;;;;;;2.2;1.1;;;;;;;9.09;86.36;;;;;
2023/12/25 20:51:21;;;;;;;2.2;1.1;;;;;;;9.09;87.02;;;;;
2023/12/25 21:02:22;;;;;;;2.2;1.3;;;;;;;9.15;87.16;;;;;
2023/12/25 21:12:21;;;;;;;2.2;1.3;;;;;;;9.23;87.36;;;;;
2023/12/25 21:22:21;;;;;;;2.2;1.3;;;;;;;9.29;86.79;;;;;
2023/12/25 21:32:21;;;;;;;4.5;2;;;;;;;9.11;86.71;;;;;
2023/12/25 21:43:21;;;;;;;4.5;2;;;;;;;8.86;87.44;;;;;
2023/12/25 21:53:21;;;;;;;4.5;2;;;;;;;8.77;88.22;;;;;
2023/12/25 22:03:23;;;;;;;7.6;3.6;;;;;;;8.65;89.63;;;;;
2023/12/25 22:13:23;;;;;;;7.6;3.6;;;;;;;8.74;89.57;;;;;
2023/12/25 22:23:21;;;;;;;7.6;3.6;;;;;;;8.73;89.62;;;;;
2023/12/25 22:33:21;;;;;;;9.5;4.9;;;;;;;8.77;89.83;;;;;
2023/12/25 22:44:21;;;;;;;9.5;4.9;;;;;;;8.91;89.61;;;;;
2023/12/25 22:54:21;;;;;;;9.5;4.9;;;;;;;8.9;89.11;;;;;
2023/12/25 23:04:21;;;;;;;9.1;4.9;;;;;;;8.97;88.84;;;;;
2023/12/25 23:14:22;;;;;;;9.1;4.9;;;;;;;9.03;88.72;;;;;
2023/12/25 23:24:22;;;;;;;9.1;4.9;;;;;;;9.08;87.89;;;;;
2023/12/25 23:35:21;;;;;;;7.9;4.7;;;;;;;9.14;87.26;;;;;
2023/12/25 23:46:21;;;;;;;7.9;4.7;;;;;;;9.26;86.25;;;;;
2023/12/25 23:56:22;;;;;;;7.9;4.7;;;;;;;9.38;85.24;;;;;
